Adair, Oklahoma
Current Conditions -  °F | °C
As of 7:55 PM on Saturday 22 Nov 2014 (Local Time) from KGCM Reporting Station
Moderate Rain Moderate Rain  
Wind Chill: 54°   Ceiling: Unl
Heat Index: 54°   Visibility: 10mi
Dew Point: 52°   Wind: 22mph
Humidity: 94%   Direction: 170°S
Pressure: 29.83"   Gusts: 33mph
Location:  36.44°N, 95.27°W
Report Text: KGCM 230155Z AUTO 17019G29KT 10SM RA CLR 12/11 A2983 RMK AO2
Loading
Personal Weather Stations






























Interactive Weather Map New forecast layout! Learn more

10-Day Weather Forecast

Advertisements
Track Severe Weather on mobile